sensor_id;sensor_type;location;lat;lon;timestamp;temperature;humidity
3912;DHT22;1971;51.778;10.330;2023-07-30T00:01:23;15.90;99.90
3912;DHT22;1971;51.778;10.330;2023-07-30T00:03:53;15.90;99.90
3912;DHT22;1971;51.778;10.330;2023-07-30T00:06:24;16.00;99.90
3912;DHT22;1971;51.778;10.330;2023-07-30T00:08:57;16.00;99.90
3912;DHT22;1971;51.778;10.330;2023-07-30T00:11:28;16.00;99.90
3912;DHT22;1971;51.778;10.330;2023-07-30T00:13:58;16.10;99.90
3912;DHT22;1971;51.778;10.330;2023-07-30T00:16:29;16.00;99.90
3912;DHT22;1971;51.778;10.330;2023-07-30T00:18:59;16.00;99.90
3912;DHT22;1971;51.778;10.330;2023-07-30T00:21:29;16.00;99.90
3912;DHT22;1971;51.778;10.330;2023-07-30T00:24:03;16.00;99.90
3912;DHT22;1971;51.778;10.330;2023-07-30T00:26:33;16.00;99.90
3912;DHT22;1971;51.778;10.330;2023-07-30T00:29:06;16.00;99.90
3912;DHT22;1971;51.778;10.330;2023-07-30T00:31:36;16.00;99.90
3912;DHT22;1971;51.778;10.330;2023-07-30T00:34:07;16.00;99.90
3912;DHT22;1971;51.778;10.330;2023-07-30T00:36:38;16.00;99.90
3912;DHT22;1971;51.778;10.330;2023-07-30T00:39:11;16.00;99.90
3912;DHT22;1971;51.778;10.330;2023-07-30T00:41:41;16.10;99.90
3912;DHT22;1971;51.778;10.330;2023-07-30T00:44:13;16.10;99.90
3912;DHT22;1971;51.778;10.330;2023-07-30T00:46:43;16.00;99.90
3912;DHT22;1971;51.778;10.330;2023-07-30T00:49:14;16.00;99.90
3912;DHT22;1971;51.778;10.330;2023-07-30T00:51:46;16.00;99.90
3912;DHT22;1971;51.778;10.330;2023-07-30T00:54:19;16.00;99.90
3912;DHT22;1971;51.778;10.330;2023-07-30T00:56:51;16.00;99.90
3912;DHT22;1971;51.778;10.330;2023-07-30T00:59:22;16.00;99.90
3912;DHT22;1971;51.778;10.330;2023-07-30T01:01:53;16.10;99.90
3912;DHT22;1971;51.778;10.330;2023-07-30T01:04:26;16.00;99.90
3912;DHT22;1971;51.778;10.330;2023-07-30T01:06:56;16.00;99.90
3912;DHT22;1971;51.778;10.330;2023-07-30T01:09:29;16.00;99.90
3912;DHT22;1971;51.778;10.330;2023-07-30T01:12:00;15.90;99.90
3912;DHT22;1971;51.778;10.330;2023-07-30T01:14:31;15.90;99.90
3912;DHT22;1971;51.778;10.330;2023-07-30T01:17:02;16.00;99.90
3912;DHT22;1971;51.778;10.330;2023-07-30T01:19:32;15.90;99.90
3912;DHT22;1971;51.778;10.330;2023-07-30T01:22:05;15.90;99.90
3912;DHT22;1971;51.778;10.330;2023-07-30T01:24:35;16.00;99.90
3912;DHT22;1971;51.778;10.330;2023-07-30T01:27:07;16.00;99.90
3912;DHT22;1971;51.778;10.330;2023-07-30T01:29:42;16.00;99.90
3912;DHT22;1971;51.778;10.330;2023-07-30T01:32:13;15.90;99.90
3912;DHT22;1971;51.778;10.330;2023-07-30T01:34:44;15.90;99.90
3912;DHT22;1971;51.778;10.330;2023-07-30T01:37:18;15.80;99.90
3912;DHT22;1971;51.778;10.330;2023-07-30T01:39:49;15.90;99.90
3912;DHT22;1971;51.778;10.330;2023-07-30T01:42:20;15.90;99.90
3912;DHT22;1971;51.778;10.330;2023-07-30T01:44:50;15.80;99.90
3912;DHT22;1971;51.778;10.330;2023-07-30T01:47:20;15.70;99.90
3912;DHT22;1971;51.778;10.330;2023-07-30T01:49:51;15.70;99.90
3912;DHT22;1971;51.778;10.330;2023-07-30T01:52:23;15.60;99.90
3912;DHT22;1971;51.778;10.330;2023-07-30T01:54:54;15.50;99.90
3912;DHT22;1971;51.778;10.330;2023-07-30T01:57:25;15.40;99.90
3912;DHT22;1971;51.778;10.330;2023-07-30T01:59:55;15.40;99.90
3912;DHT22;1971;51.778;10.330;2023-07-30T02:02:26;15.30;99.90
3912;DHT22;1971;51.778;10.330;2023-07-30T02:04:56;15.40;99.90
3912;DHT22;1971;51.778;10.330;2023-07-30T02:07:29;15.40;99.90
3912;DHT22;1971;51.778;10.330;2023-07-30T02:10:00;15.30;99.90
3912;DHT22;1971;51.778;10.330;2023-07-30T02:12:30;15.30;99.90
3912;DHT22;1971;51.778;10.330;2023-07-30T02:15:00;15.30;99.90
3912;DHT22;1971;51.778;10.330;2023-07-30T02:17:30;15.30;99.90
3912;DHT22;1971;51.778;10.330;2023-07-30T02:20:00;15.30;99.90
3912;DHT22;1971;51.778;10.330;2023-07-30T02:22:33;15.20;99.90
3912;DHT22;1971;51.778;10.330;2023-07-30T02:25:04;15.20;99.90
3912;DHT22;1971;51.778;10.330;2023-07-30T02:27:34;15.10;99.90
3912;DHT22;1971;51.778;10.330;2023-07-30T02:30:07;15.10;99.90
3912;DHT22;1971;51.778;10.330;2023-07-30T02:32:37;15.00;99.90
3912;DHT22;1971;51.778;10.330;2023-07-30T02:35:08;14.90;99.90
3912;DHT22;1971;51.778;10.330;2023-07-30T02:37:41;14.90;99.90
3912;DHT22;1971;51.778;10.330;2023-07-30T02:40:11;14.80;99.90
3912;DHT22;1971;51.778;10.330;2023-07-30T02:42:42;14.80;99.90
3912;DHT22;1971;51.778;10.330;2023-07-30T02:45:12;14.80;99.90
3912;DHT22;1971;51.778;10.330;2023-07-30T02:47:42;14.80;99.90
3912;DHT22;1971;51.778;10.330;2023-07-30T02:50:13;14.80;99.90
3912;DHT22;1971;51.778;10.330;2023-07-30T02:52:49;14.80;99.90
3912;DHT22;1971;51.778;10.330;2023-07-30T02:55:19;14.90;99.90
3912;DHT22;1971;51.778;10.330;2023-07-30T02:57:50;14.80;99.90
3912;DHT22;1971;51.778;10.330;2023-07-30T03:00:20;14.70;99.90
3912;DHT22;1971;51.778;10.330;2023-07-30T03:02:50;14.70;99.90
3912;DHT22;1971;51.778;10.330;2023-07-30T03:05:21;14.70;99.90
3912;DHT22;1971;51.778;10.330;2023-07-30T03:07:53;14.80;99.90
3912;DHT22;1971;51.778;10.330;2023-07-30T03:10:24;14.70;99.90
3912;DHT22;1971;51.778;10.330;2023-07-30T03:12:54;14.80;99.90
3912;DHT22;1971;51.778;10.330;2023-07-30T03:15:24;14.70;99.90
3912;DHT22;1971;51.778;10.330;2023-07-30T03:17:54;14.70;99.90
3912;DHT22;1971;51.778;10.330;2023-07-30T03:20:25;14.80;99.90
3912;DHT22;1971;51.778;10.330;2023-07-30T03:22:58;14.80;99.90
3912;DHT22;1971;51.778;10.330;2023-07-30T03:25:28;14.80;99.90
3912;DHT22;1971;51.778;10.330;2023-07-30T03:27:58;14.80;99.90
3912;DHT22;1971;51.778;10.330;2023-07-30T03:30:28;14.90;99.90
3912;DHT22;1971;51.778;10.330;2023-07-30T03:32:58;14.80;99.90
3912;DHT22;1971;51.778;10.330;2023-07-30T03:35:28;14.70;99.90
3912;DHT22;1971;51.778;10.330;2023-07-30T03:38:01;14.80;99.90
3912;DHT22;1971;51.778;10.330;2023-07-30T03:40:31;14.70;99.90
3912;DHT22;1971;51.778;10.330;2023-07-30T03:43:03;14.70;99.90
3912;DHT22;1971;51.778;10.330;2023-07-30T03:45:33;14.60;99.90
3912;DHT22;1971;51.778;10.330;2023-07-30T03:48:03;14.60;99.90
3912;DHT22;1971;51.778;10.330;2023-07-30T03:50:33;14.60;99.90
3912;DHT22;1971;51.778;10.330;2023-07-30T03:53:06;14.60;99.90
3912;DHT22;1971;51.778;10.330;2023-07-30T03:55:37;14.60;99.90
3912;DHT22;1971;51.778;10.330;2023-07-30T03:58:07;14.60;99.90
3912;DHT22;1971;51.778;10.330;2023-07-30T04:00:38;14.60;99.90
3912;DHT22;1971;51.778;10.330;2023-07-30T04:03:08;14.50;99.90
3912;DHT22;1971;51.778;10.330;2023-07-30T04:05:38;14.50;99.90
3912;DHT22;1971;51.778;10.330;2023-07-30T04:08:11;14.50;99.90
3912;DHT22;1971;51.778;10.330;2023-07-30T04:10:42;14.40;99.90
3912;DHT22;1971;51.778;10.330;2023-07-30T04:13:12;14.40;99.90
3912;DHT22;1971;51.778;10.330;2023-07-30T04:15:42;14.40;99.90
3912;DHT22;1971;51.778;10.330;2023-07-30T04:18:12;14.40;99.90
3912;DHT22;1971;51.778;10.330;2023-07-30T04:20:43;14.40;99.90
3912;DHT22;1971;51.778;10.330;2023-07-30T04:23:15;14.50;99.90
3912;DHT22;1971;51.778;10.330;2023-07-30T04:25:45;14.60;99.90
3912;DHT22;1971;51.778;10.330;2023-07-30T04:28:18;14.70;99.90
3912;DHT22;1971;51.778;10.330;2023-07-30T04:30:49;14.70;99.90
3912;DHT22;1971;51.778;10.330;2023-07-30T04:33:19;14.70;99.90
3912;DHT22;1971;51.778;10.330;2023-07-30T04:35:49;14.80;99.90
3912;DHT22;1971;51.778;10.330;2023-07-30T04:38:23;14.90;99.90
3912;DHT22;1971;51.778;10.330;2023-07-30T04:40:54;14.90;99.90
3912;DHT22;1971;51.778;10.330;2023-07-30T04:43:24;14.90;99.90
3912;DHT22;1971;51.778;10.330;2023-07-30T04:45:56;14.80;99.90
3912;DHT22;1971;51.778;10.330;2023-07-30T04:48:27;14.90;99.90
3912;DHT22;1971;51.778;10.330;2023-07-30T04:50:57;14.90;99.90
3912;DHT22;1971;51.778;10.330;2023-07-30T04:53:30;15.00;99.90
3912;DHT22;1971;51.778;10.330;2023-07-30T04:56:00;14.90;99.90
3912;DHT22;1971;51.778;10.330;2023-07-30T04:58:31;14.90;99.90
3912;DHT22;1971;51.778;10.330;2023-07-30T05:01:01;14.80;99.90
3912;DHT22;1971;51.778;10.330;2023-07-30T05:03:31;14.80;99.90
3912;DHT22;1971;51.778;10.330;2023-07-30T05:06:01;14.70;99.90
3912;DHT22;1971;51.778;10.330;2023-07-30T05:08:34;14.70;99.90
3912;DHT22;1971;51.778;10.330;2023-07-30T05:11:05;14.70;99.90
3912;DHT22;1971;51.778;10.330;2023-07-30T05:13:35;14.80;99.90
3912;DHT22;1971;51.778;10.330;2023-07-30T05:16:06;14.80;99.90
3912;DHT22;1971;51.778;10.330;2023-07-30T05:18:36;14.80;99.90
3912;DHT22;1971;51.778;10.330;2023-07-30T05:21:06;14.80;99.90
3912;DHT22;1971;51.778;10.330;2023-07-30T05:23:39;14.90;99.90
3912;DHT22;1971;51.778;10.330;2023-07-30T05:26:09;14.90;99.90
3912;DHT22;1971;51.778;10.330;2023-07-30T05:28:39;14.90;99.90
3912;DHT22;1971;51.778;10.330;2023-07-30T05:31:09;14.90;99.90
3912;DHT22;1971;51.778;10.330;2023-07-30T05:33:39;14.90;99.90
3912;DHT22;1971;51.778;10.330;2023-07-30T05:36:10;14.90;99.90
3912;DHT22;1971;51.778;10.330;2023-07-30T05:38:42;14.90;99.90
3912;DHT22;1971;51.778;10.330;2023-07-30T05:41:12;15.00;99.90
3912;DHT22;1971;51.778;10.330;2023-07-30T05:43:43;15.10;99.90
3912;DHT22;1971;51.778;10.330;2023-07-30T05:46:13;15.20;99.90
3912;DHT22;1971;51.778;10.330;2023-07-30T05:48:43;15.30;99.90
3912;DHT22;1971;51.778;10.330;2023-07-30T05:51:14;15.30;99.90
3912;DHT22;1971;51.778;10.330;2023-07-30T05:53:46;15.50;99.90
3912;DHT22;1971;51.778;10.330;2023-07-30T05:56:17;15.50;99.90
3912;DHT22;1971;51.778;10.330;2023-07-30T05:58:47;15.40;99.90
3912;DHT22;1971;51.778;10.330;2023-07-30T06:01:17;15.20;99.90
3912;DHT22;1971;51.778;10.330;2023-07-30T06:03:47;15.30;99.90
3912;DHT22;1971;51.778;10.330;2023-07-30T06:06:18;15.50;99.90
3912;DHT22;1971;51.778;10.330;2023-07-30T06:08:56;15.30;99.90
3912;DHT22;1971;51.778;10.330;2023-07-30T06:11:27;15.40;99.90
3912;DHT22;1971;51.778;10.330;2023-07-30T06:13:57;15.40;99.90
3912;DHT22;1971;51.778;10.330;2023-07-30T06:16:27;15.70;99.90
3912;DHT22;1971;51.778;10.330;2023-07-30T06:18:58;15.80;99.90
3912;DHT22;1971;51.778;10.330;2023-07-30T06:21:28;15.70;99.90
3912;DHT22;1971;51.778;10.330;2023-07-30T06:24:01;15.80;99.90
3912;DHT22;1971;51.778;10.330;2023-07-30T06:26:31;16.20;99.90
3912;DHT22;1971;51.778;10.330;2023-07-30T06:29:02;16.10;76.40
3912;DHT22;1971;51.778;10.330;2023-07-30T06:31:32;16.00;25.30
3912;DHT22;1971;51.778;10.330;2023-07-30T06:34:03;16.30;50.90
3912;DHT22;1971;51.778;10.330;2023-07-30T06:36:33;16.50;1.00
3912;DHT22;1971;51.778;10.330;2023-07-30T06:39:06;16.30;1.00
3912;DHT22;1971;51.778;10.330;2023-07-30T06:41:36;16.00;1.00
3912;DHT22;1971;51.778;10.330;2023-07-30T06:44:07;15.70;1.00
3912;DHT22;1971;51.778;10.330;2023-07-30T06:46:38;15.70;1.00
3912;DHT22;1971;51.778;10.330;2023-07-30T06:49:08;15.90;1.00
3912;DHT22;1971;51.778;10.330;2023-07-30T06:51:38;16.20;1.00
3912;DHT22;1971;51.778;10.330;2023-07-30T06:54:11;16.40;1.00
3912;DHT22;1971;51.778;10.330;2023-07-30T06:56:42;16.70;1.00
3912;DHT22;1971;51.778;10.330;2023-07-30T06:59:12;16.90;1.00
3912;DHT22;1971;51.778;10.330;2023-07-30T07:01:42;17.10;99.90
3912;DHT22;1971;51.778;10.330;2023-07-30T07:04:12;16.80;99.90
3912;DHT22;1971;51.778;10.330;2023-07-30T07:06:42;17.10;99.90
3912;DHT22;1971;51.778;10.330;2023-07-30T07:09:15;17.00;99.90
3912;DHT22;1971;51.778;10.330;2023-07-30T07:11:45;17.30;99.90
3912;DHT22;1971;51.778;10.330;2023-07-30T07:14:15;17.40;99.90
3912;DHT22;1971;51.778;10.330;2023-07-30T07:16:45;17.40;99.90
3912;DHT22;1971;51.778;10.330;2023-07-30T07:19:16;17.40;99.90
3912;DHT22;1971;51.778;10.330;2023-07-30T07:21:46;17.50;96.20
3912;DHT22;1971;51.778;10.330;2023-07-30T07:24:18;17.40;64.80
3912;DHT22;1971;51.778;10.330;2023-07-30T07:26:49;17.50;64.90
3912;DHT22;1971;51.778;10.330;2023-07-30T07:29:19;17.50;19.40
3912;DHT22;1971;51.778;10.330;2023-07-30T07:31:49;17.80;2.00
3912;DHT22;1971;51.778;10.330;2023-07-30T07:34:20;17.50;62.00
3912;DHT22;1971;51.778;10.330;2023-07-30T07:36:50;17.80;54.10
3912;DHT22;1971;51.778;10.330;2023-07-30T07:39:23;17.90;73.80
3912;DHT22;1971;51.778;10.330;2023-07-30T07:41:53;17.70;10.30
3912;DHT22;1971;51.778;10.330;2023-07-30T07:44:23;17.30;1.00
3912;DHT22;1971;51.778;10.330;2023-07-30T07:46:53;17.20;20.70
3912;DHT22;1971;51.778;10.330;2023-07-30T07:49:24;17.10;14.50
3912;DHT22;1971;51.778;10.330;2023-07-30T07:51:54;17.00;14.20
3912;DHT22;1971;51.778;10.330;2023-07-30T07:54:27;17.20;20.10
3912;DHT22;1971;51.778;10.330;2023-07-30T07:56:57;17.30;42.10
3912;DHT22;1971;51.778;10.330;2023-07-30T07:59:27;17.40;46.20
3912;DHT22;1971;51.778;10.330;2023-07-30T08:01:57;17.70;12.10
3912;DHT22;1971;51.778;10.330;2023-07-30T08:04:27;17.70;1.00
3912;DHT22;1971;51.778;10.330;2023-07-30T08:06:58;17.50;1.00
3912;DHT22;1971;51.778;10.330;2023-07-30T08:09:33;16.50;1.00
3912;DHT22;1971;51.778;10.330;2023-07-30T08:12:04;16.20;1.00
3912;DHT22;1971;51.778;10.330;2023-07-30T08:14:34;16.00;74.70
3912;DHT22;1971;51.778;10.330;2023-07-30T08:17:04;16.40;99.90
3912;DHT22;1971;51.778;10.330;2023-07-30T08:19:34;16.70;80.00
3912;DHT22;1971;51.778;10.330;2023-07-30T08:22:04;17.10;32.70
3912;DHT22;1971;51.778;10.330;2023-07-30T08:24:37;16.90;1.00
3912;DHT22;1971;51.778;10.330;2023-07-30T08:27:07;16.90;1.00
3912;DHT22;1971;51.778;10.330;2023-07-30T08:29:37;16.90;1.00
3912;DHT22;1971;51.778;10.330;2023-07-30T08:32:07;17.20;1.00
3912;DHT22;1971;51.778;10.330;2023-07-30T08:34:38;17.60;1.00
3912;DHT22;1971;51.778;10.330;2023-07-30T08:37:08;18.10;1.00
3912;DHT22;1971;51.778;10.330;2023-07-30T08:39:41;18.70;1.00
3912;DHT22;1971;51.778;10.330;2023-07-30T08:42:16;19.00;1.00
3912;DHT22;1971;51.778;10.330;2023-07-30T08:44:46;18.70;1.00
3912;DHT22;1971;51.778;10.330;2023-07-30T08:47:16;18.50;1.00
3912;DHT22;1971;51.778;10.330;2023-07-30T08:49:46;18.60;1.00
3912;DHT22;1971;51.778;10.330;2023-07-30T08:52:17;18.40;1.00
3912;DHT22;1971;51.778;10.330;2023-07-30T08:54:54;17.80;1.00
3912;DHT22;1971;51.778;10.330;2023-07-30T08:57:26;17.80;1.00
3912;DHT22;1971;51.778;10.330;2023-07-30T09:00:02;17.90;1.00
3912;DHT22;1971;51.778;10.330;2023-07-30T09:02:38;17.90;1.00
3912;DHT22;1971;51.778;10.330;2023-07-30T09:05:10;18.20;1.00
3912;DHT22;1971;51.778;10.330;2023-07-30T09:07:40;18.30;1.00
3912;DHT22;1971;51.778;10.330;2023-07-30T09:10:14;18.40;1.00
3912;DHT22;1971;51.778;10.330;2023-07-30T09:12:44;18.00;1.00
3912;DHT22;1971;51.778;10.330;2023-07-30T09:15:15;17.80;1.00
3912;DHT22;1971;51.778;10.330;2023-07-30T09:17:46;17.40;1.00
3912;DHT22;1971;51.778;10.330;2023-07-30T09:20:17;17.40;35.50
3912;DHT22;1971;51.778;10.330;2023-07-30T09:22:47;16.50;1.70
3912;DHT22;1971;51.778;10.330;2023-07-30T09:25:20;16.30;99.90
3912;DHT22;1971;51.778;10.330;2023-07-30T09:27:51;16.30;1.00
3912;DHT22;1971;51.778;10.330;2023-07-30T09:30:22;16.30;1.00
3912;DHT22;1971;51.778;10.330;2023-07-30T09:32:55;16.30;1.00
3912;DHT22;1971;51.778;10.330;2023-07-30T09:35:26;16.60;1.00
3912;DHT22;1971;51.778;10.330;2023-07-30T09:38:00;16.60;1.00
3912;DHT22;1971;51.778;10.330;2023-07-30T09:40:35;16.80;1.00
3912;DHT22;1971;51.778;10.330;2023-07-30T09:43:06;16.70;99.90
3912;DHT22;1971;51.778;10.330;2023-07-30T09:45:36;16.40;99.90
3912;DHT22;1971;51.778;10.330;2023-07-30T09:48:06;16.30;99.90
3912;DHT22;1971;51.778;10.330;2023-07-30T09:50:37;16.20;99.90
3912;DHT22;1971;51.778;10.330;2023-07-30T09:53:07;16.40;1.00
3912;DHT22;1971;51.778;10.330;2023-07-30T09:55:41;16.30;1.00
3912;DHT22;1971;51.778;10.330;2023-07-30T09:58:11;16.00;1.00
3912;DHT22;1971;51.778;10.330;2023-07-30T10:00:43;15.70;1.00
3912;DHT22;1971;51.778;10.330;2023-07-30T10:03:15;15.50;1.00
3912;DHT22;1971;51.778;10.330;2023-07-30T10:05:47;15.20;1.00
3912;DHT22;1971;51.778;10.330;2023-07-30T10:08:21;15.00;99.90
3912;DHT22;1971;51.778;10.330;2023-07-30T10:10:56;14.90;99.90
3912;DHT22;1971;51.778;10.330;2023-07-30T10:13:27;14.90;99.90
3912;DHT22;1971;51.778;10.330;2023-07-30T10:15:57;14.90;99.90
3912;DHT22;1971;51.778;10.330;2023-07-30T10:18:34;14.80;99.90
3912;DHT22;1971;51.778;10.330;2023-07-30T10:21:08;15.00;99.90
3912;DHT22;1971;51.778;10.330;2023-07-30T10:23:46;15.00;99.90
3912;DHT22;1971;51.778;10.330;2023-07-30T10:26:26;14.80;99.90
3912;DHT22;1971;51.778;10.330;2023-07-30T10:29:16;14.50;99.90
3912;DHT22;1971;51.778;10.330;2023-07-30T10:31:49;14.30;99.90
3912;DHT22;1971;51.778;10.330;2023-07-30T10:34:25;14.30;99.90
3912;DHT22;1971;51.778;10.330;2023-07-30T10:36:56;14.40;99.90
3912;DHT22;1971;51.778;10.330;2023-07-30T10:39:27;14.20;99.90
3912;DHT22;1971;51.778;10.330;2023-07-30T10:42:00;14.30;99.90
3912;DHT22;1971;51.778;10.330;2023-07-30T10:44:32;14.20;99.90
3912;DHT22;1971;51.778;10.330;2023-07-30T10:47:03;14.10;99.90
3912;DHT22;1971;51.778;10.330;2023-07-30T10:49:36;14.10;99.90
3912;DHT22;1971;51.778;10.330;2023-07-30T10:52:07;14.10;99.90
3912;DHT22;1971;51.778;10.330;2023-07-30T10:54:38;13.90;99.90
3912;DHT22;1971;51.778;10.330;2023-07-30T10:57:11;13.80;99.90
3912;DHT22;1971;51.778;10.330;2023-07-30T10:59:41;13.80;99.90
3912;DHT22;1971;51.778;10.330;2023-07-30T11:02:12;13.80;99.90
3912;DHT22;1971;51.778;10.330;2023-07-30T11:04:42;13.70;99.90
3912;DHT22;1971;51.778;10.330;2023-07-30T11:07:17;13.60;99.90
3912;DHT22;1971;51.778;10.330;2023-07-30T11:09:58;13.70;99.90
3912;DHT22;1971;51.778;10.330;2023-07-30T11:12:32;13.60;99.90
3912;DHT22;1971;51.778;10.330;2023-07-30T11:15:03;13.50;99.90
3912;DHT22;1971;51.778;10.330;2023-07-30T11:17:33;13.50;99.90
3912;DHT22;1971;51.778;10.330;2023-07-30T11:20:05;13.50;99.90
3912;DHT22;1971;51.778;10.330;2023-07-30T11:22:35;13.30;99.90
3912;DHT22;1971;51.778;10.330;2023-07-30T11:25:16;13.30;99.90
3912;DHT22;1971;51.778;10.330;2023-07-30T11:27:50;13.50;99.90
3912;DHT22;1971;51.778;10.330;2023-07-30T11:30:21;13.50;99.90
3912;DHT22;1971;51.778;10.330;2023-07-30T11:32:53;13.60;99.90
3912;DHT22;1971;51.778;10.330;2023-07-30T11:35:23;13.70;99.90
3912;DHT22;1971;51.778;10.330;2023-07-30T11:37:54;13.80;99.90
3912;DHT22;1971;51.778;10.330;2023-07-30T11:40:25;13.80;99.90
3912;DHT22;1971;51.778;10.330;2023-07-30T11:42:58;13.80;99.90
3912;DHT22;1971;51.778;10.330;2023-07-30T11:45:29;13.90;99.90
3912;DHT22;1971;51.778;10.330;2023-07-30T11:48:06;14.00;99.90
3912;DHT22;1971;51.778;10.330;2023-07-30T11:50:46;14.10;99.90
3912;DHT22;1971;51.778;10.330;2023-07-30T11:53:17;14.20;99.90
3912;DHT22;1971;51.778;10.330;2023-07-30T11:55:47;14.40;99.90
3912;DHT22;1971;51.778;10.330;2023-07-30T11:58:20;14.60;99.90
3912;DHT22;1971;51.778;10.330;2023-07-30T12:00:51;14.70;99.90
3912;DHT22;1971;51.778;10.330;2023-07-30T12:03:21;14.90;99.90
3912;DHT22;1971;51.778;10.330;2023-07-30T12:05:54;15.10;99.90
3912;DHT22;1971;51.778;10.330;2023-07-30T12:08:26;15.40;99.90
3912;DHT22;1971;51.778;10.330;2023-07-30T12:11:02;15.50;99.90
3912;DHT22;1971;51.778;10.330;2023-07-30T12:13:42;15.60;99.90
3912;DHT22;1971;51.778;10.330;2023-07-30T12:16:14;15.70;99.90
3912;DHT22;1971;51.778;10.330;2023-07-30T12:18:48;15.70;99.90
3912;DHT22;1971;51.778;10.330;2023-07-30T12:21:18;15.70;99.90
3912;DHT22;1971;51.778;10.330;2023-07-30T12:23:48;15.60;99.90
3912;DHT22;1971;51.778;10.330;2023-07-30T12:26:19;15.80;99.90
3912;DHT22;1971;51.778;10.330;2023-07-30T12:28:51;15.90;99.90
3912;DHT22;1971;51.778;10.330;2023-07-30T12:31:25;15.70;99.90
3912;DHT22;1971;51.778;10.330;2023-07-30T12:33:55;15.70;99.90
3912;DHT22;1971;51.778;10.330;2023-07-30T12:36:25;15.80;99.90
3912;DHT22;1971;51.778;10.330;2023-07-30T12:38:56;15.50;99.90
3912;DHT22;1971;51.778;10.330;2023-07-30T12:41:26;15.40;99.90
3912;DHT22;1971;51.778;10.330;2023-07-30T12:43:59;15.20;99.90
3912;DHT22;1971;51.778;10.330;2023-07-30T12:46:30;14.80;99.90
3912;DHT22;1971;51.778;10.330;2023-07-30T12:49:01;14.80;99.90
3912;DHT22;1971;51.778;10.330;2023-07-30T12:51:32;14.80;99.90
3912;DHT22;1971;51.778;10.330;2023-07-30T12:54:03;14.90;99.90
3912;DHT22;1971;51.778;10.330;2023-07-30T12:56:33;15.00;99.90
3912;DHT22;1971;51.778;10.330;2023-07-30T12:59:07;15.10;99.90
3912;DHT22;1971;51.778;10.330;2023-07-30T13:01:37;15.20;99.90
3912;DHT22;1971;51.778;10.330;2023-07-30T13:04:12;15.60;99.90
3912;DHT22;1971;51.778;10.330;2023-07-30T13:06:42;15.80;99.90
3912;DHT22;1971;51.778;10.330;2023-07-30T13:09:12;16.00;99.90
3912;DHT22;1971;51.778;10.330;2023-07-30T13:11:43;16.10;99.90
3912;DHT22;1971;51.778;10.330;2023-07-30T13:14:15;15.90;99.90
3912;DHT22;1971;51.778;10.330;2023-07-30T13:16:46;16.00;99.90
3912;DHT22;1971;51.778;10.330;2023-07-30T13:19:16;16.10;99.90
3912;DHT22;1971;51.778;10.330;2023-07-30T13:21:46;16.00;99.90
3912;DHT22;1971;51.778;10.330;2023-07-30T13:24:16;16.40;99.90
3912;DHT22;1971;51.778;10.330;2023-07-30T13:26:47;16.80;99.90
3912;DHT22;1971;51.778;10.330;2023-07-30T13:29:19;17.00;99.90
3912;DHT22;1971;51.778;10.330;2023-07-30T13:31:50;17.00;99.90
3912;DHT22;1971;51.778;10.330;2023-07-30T13:34:20;17.40;99.90
3912;DHT22;1971;51.778;10.330;2023-07-30T13:36:51;17.60;99.90
3912;DHT22;1971;51.778;10.330;2023-07-30T13:39:21;17.70;99.90
3912;DHT22;1971;51.778;10.330;2023-07-30T13:41:51;17.80;99.90
3912;DHT22;1971;51.778;10.330;2023-07-30T13:44:27;18.10;81.00
3912;DHT22;1971;51.778;10.330;2023-07-30T13:46:57;18.00;1.00
3912;DHT22;1971;51.778;10.330;2023-07-30T13:49:27;17.80;1.00
3912;DHT22;1971;51.778;10.330;2023-07-30T13:51:57;18.20;20.60
3912;DHT22;1971;51.778;10.330;2023-07-30T13:54:27;18.10;1.00
3912;DHT22;1971;51.778;10.330;2023-07-30T13:56:58;18.10;1.00
3912;DHT22;1971;51.778;10.330;2023-07-30T13:59:31;18.30;1.00
3912;DHT22;1971;51.778;10.330;2023-07-30T14:02:01;18.30;1.00
3912;DHT22;1971;51.778;10.330;2023-07-30T14:04:31;18.40;1.00
3912;DHT22;1971;51.778;10.330;2023-07-30T14:07:01;18.20;1.00
3912;DHT22;1971;51.778;10.330;2023-07-30T14:09:31;18.40;1.00
3912;DHT22;1971;51.778;10.330;2023-07-30T14:12:04;18.60;1.00
3912;DHT22;1971;51.778;10.330;2023-07-30T14:14:37;18.40;1.00
3912;DHT22;1971;51.778;10.330;2023-07-30T14:17:08;18.00;1.00
3912;DHT22;1971;51.778;10.330;2023-07-30T14:19:42;17.80;99.90
3912;DHT22;1971;51.778;10.330;2023-07-30T14:22:12;17.80;99.90
3912;DHT22;1971;51.778;10.330;2023-07-30T14:24:43;17.40;99.90
3912;DHT22;1971;51.778;10.330;2023-07-30T14:27:13;17.50;99.90
3912;DHT22;1971;51.778;10.330;2023-07-30T14:29:46;18.10;99.90
3912;DHT22;1971;51.778;10.330;2023-07-30T14:32:16;18.20;99.90
3912;DHT22;1971;51.778;10.330;2023-07-30T14:34:47;18.00;99.90
3912;DHT22;1971;51.778;10.330;2023-07-30T14:37:17;17.90;99.90
3912;DHT22;1971;51.778;10.330;2023-07-30T14:39:47;17.50;99.90
3912;DHT22;1971;51.778;10.330;2023-07-30T14:42:17;17.50;99.90
3912;DHT22;1971;51.778;10.330;2023-07-30T14:44:50;17.40;99.90
3912;DHT22;1971;51.778;10.330;2023-07-30T14:47:20;17.70;99.90
3912;DHT22;1971;51.778;10.330;2023-07-30T14:49:51;18.00;99.90
3912;DHT22;1971;51.778;10.330;2023-07-30T14:52:22;18.10;99.90
3912;DHT22;1971;51.778;10.330;2023-07-30T14:54:52;18.30;99.90
3912;DHT22;1971;51.778;10.330;2023-07-30T14:57:22;18.70;99.90
3912;DHT22;1971;51.778;10.330;2023-07-30T14:59:55;18.30;33.30
3912;DHT22;1971;51.778;10.330;2023-07-30T15:02:27;17.90;93.70
3912;DHT22;1971;51.778;10.330;2023-07-30T15:04:58;18.00;99.90
3912;DHT22;1971;51.778;10.330;2023-07-30T15:07:28;18.50;99.90
3912;DHT22;1971;51.778;10.330;2023-07-30T15:09:58;18.60;94.40
3912;DHT22;1971;51.778;10.330;2023-07-30T15:12:29;18.40;6.60
3912;DHT22;1971;51.778;10.330;2023-07-30T15:15:03;17.90;69.70
3912;DHT22;1971;51.778;10.330;2023-07-30T15:17:34;17.70;99.90
3912;DHT22;1971;51.778;10.330;2023-07-30T15:20:06;18.10;99.90
3912;DHT22;1971;51.778;10.330;2023-07-30T15:22:36;18.10;99.90
3912;DHT22;1971;51.778;10.330;2023-07-30T15:25:06;17.90;92.80
3912;DHT22;1971;51.778;10.330;2023-07-30T15:27:37;17.70;99.90
3912;DHT22;1971;51.778;10.330;2023-07-30T15:30:10;17.50;80.30
3912;DHT22;1971;51.778;10.330;2023-07-30T15:32:42;17.40;24.90
3912;DHT22;1971;51.778;10.330;2023-07-30T15:35:13;17.20;22.00
3912;DHT22;1971;51.778;10.330;2023-07-30T15:37:43;17.20;21.00
3912;DHT22;1971;51.778;10.330;2023-07-30T15:40:13;17.50;25.50
3912;DHT22;1971;51.778;10.330;2023-07-30T15:42:43;17.30;1.00
3912;DHT22;1971;51.778;10.330;2023-07-30T15:45:16;17.10;1.00
3912;DHT22;1971;51.778;10.330;2023-07-30T15:47:47;17.00;1.00
3912;DHT22;1971;51.778;10.330;2023-07-30T15:50:21;16.90;1.00
3912;DHT22;1971;51.778;10.330;2023-07-30T15:52:54;16.80;1.00
3912;DHT22;1971;51.778;10.330;2023-07-30T15:55:24;16.60;1.00
3912;DHT22;1971;51.778;10.330;2023-07-30T15:57:54;16.60;1.00
3912;DHT22;1971;51.778;10.330;2023-07-30T16:00:27;16.40;1.00
3912;DHT22;1971;51.778;10.330;2023-07-30T16:02:58;16.30;1.00
3912;DHT22;1971;51.778;10.330;2023-07-30T16:05:31;16.20;1.00
3912;DHT22;1971;51.778;10.330;2023-07-30T16:08:02;15.90;25.60
3912;DHT22;1971;51.778;10.330;2023-07-30T16:10:33;15.70;99.00
3912;DHT22;1971;51.778;10.330;2023-07-30T16:13:03;15.50;99.90
3912;DHT22;1971;51.778;10.330;2023-07-30T16:15:36;15.50;99.90